createdAt,value
2022-11-27T00:01:00.365Z,4.50
2022-11-27T00:03:29.083Z,4.50
2022-11-27T00:05:59.687Z,4.40
2022-11-27T00:08:27.673Z,4.30
2022-11-27T00:10:55.557Z,4.30
2022-11-27T00:13:23.481Z,4.20
2022-11-27T00:15:51.760Z,4.20
2022-11-27T00:18:19.760Z,4.10
2022-11-27T00:20:47.722Z,4.00
2022-11-27T00:23:16.988Z,3.90
2022-11-27T00:25:51.207Z,3.80
2022-11-27T00:28:19.279Z,3.90
2022-11-27T00:30:47.624Z,3.80
2022-11-27T00:33:15.587Z,3.70
2022-11-27T00:35:43.900Z,3.70
2022-11-27T00:38:11.829Z,3.60
2022-11-27T00:40:41.534Z,3.50
2022-11-27T00:43:09.467Z,3.40
2022-11-27T00:45:37.456Z,3.30
2022-11-27T00:48:06.024Z,3.30
2022-11-27T00:50:34.152Z,3.30
2022-11-27T00:53:02.208Z,3.30
2022-11-27T00:55:30.189Z,3.20
2022-11-27T00:57:59.480Z,3.20
2022-11-27T01:00:27.504Z,3.20
2022-11-27T01:02:55.690Z,3.10
2022-11-27T01:05:23.941Z,3.10
2022-11-27T01:07:51.999Z,3.00
2022-11-27T01:10:20.051Z,2.90
2022-11-27T01:12:49.816Z,2.80
2022-11-27T01:15:19.321Z,2.70
2022-11-27T01:17:47.220Z,2.70
2022-11-27T01:20:15.165Z,2.70
2022-11-27T01:22:43.151Z,2.70
2022-11-27T01:25:11.242Z,2.60
2022-11-27T01:27:39.180Z,2.60
2022-11-27T01:30:08.562Z,2.60
2022-11-27T01:32:37.832Z,2.60
2022-11-27T01:35:06.317Z,2.60
2022-11-27T01:37:34.292Z,2.60
2022-11-27T01:40:02.357Z,2.50
2022-11-27T01:42:30.271Z,2.40
2022-11-27T01:44:58.238Z,2.40
2022-11-27T01:47:43.677Z,2.40
2022-11-27T01:50:18.617Z,2.40
2022-11-27T01:52:50.847Z,2.50
2022-11-27T01:55:24.728Z,2.30
2022-11-27T01:57:56.004Z,2.20
2022-11-27T02:00:24.660Z,2.20
2022-11-27T02:02:54.007Z,2.20
2022-11-27T02:05:24.688Z,2.20
2022-11-27T02:07:54.536Z,2.20
2022-11-27T02:10:24.035Z,2.20
2022-11-27T02:12:57.867Z,2.30
2022-11-27T02:15:32.565Z,2.30
2022-11-27T02:18:11.404Z,2.30
2022-11-27T02:20:50.603Z,2.30
2022-11-27T02:23:58.260Z,2.30
2022-11-27T02:26:53.120Z,2.30
2022-11-27T02:29:24.445Z,2.30
2022-11-27T02:31:58.463Z,2.40
2022-11-27T02:34:33.629Z,2.50
2022-11-27T02:37:06.566Z,2.50
2022-11-27T02:39:38.526Z,2.50
2022-11-27T02:42:12.915Z,2.40
2022-11-27T02:44:48.721Z,2.60
2022-11-27T02:47:16.762Z,2.50
2022-11-27T02:49:46.809Z,2.50
2022-11-27T02:52:18.679Z,2.30
2022-11-27T02:54:50.776Z,2.20
2022-11-27T02:57:21.079Z,2.00
2022-11-27T02:59:54.373Z,1.90
2022-11-27T03:02:28.669Z,1.80
2022-11-27T03:04:58.727Z,1.80
2022-11-27T03:07:33.427Z,1.80
2022-11-27T03:10:05.911Z,1.80
2022-11-27T03:12:33.931Z,1.60
2022-11-27T03:15:03.194Z,1.60
2022-11-27T03:17:42.732Z,1.50
2022-11-27T03:20:16.722Z,1.50
2022-11-27T03:22:44.871Z,1.50
2022-11-27T03:25:12.782Z,1.60
2022-11-27T03:27:45.580Z,1.60
2022-11-27T03:30:15.768Z,1.70
2022-11-27T03:32:44.790Z,2.00
2022-11-27T03:35:15.612Z,2.10
2022-11-27T03:37:43.805Z,2.20
2022-11-27T03:40:12.994Z,2.20
2022-11-27T03:42:51.329Z,2.40
2022-11-27T03:45:29.374Z,2.50
2022-11-27T03:48:08.272Z,2.60
2022-11-27T03:50:47.758Z,2.60
2022-11-27T03:53:25.762Z,2.80
2022-11-27T03:56:04.226Z,2.80
2022-11-27T03:58:37.771Z,2.80
2022-11-27T04:01:12.352Z,2.80
2022-11-27T04:03:40.442Z,2.80
2022-11-27T04:06:08.548Z,2.70
2022-11-27T04:08:36.529Z,2.70
2022-11-27T04:11:04.410Z,2.70
2022-11-27T04:13:32.417Z,2.80
2022-11-27T04:16:01.538Z,2.80
2022-11-27T04:18:31.327Z,3.00
2022-11-27T04:20:59.429Z,3.00
2022-11-27T04:23:27.659Z,3.00
2022-11-27T04:25:55.588Z,3.00
2022-11-27T04:28:23.526Z,3.20
2022-11-27T04:30:53.718Z,3.20
2022-11-27T04:33:21.726Z,3.10
2022-11-27T04:35:51.294Z,3.10
2022-11-27T04:38:19.247Z,3.00
2022-11-27T04:40:47.252Z,3.00
2022-11-27T04:43:15.257Z,2.90
2022-11-27T04:45:44.326Z,2.90
2022-11-27T04:48:12.302Z,2.80
2022-11-27T04:50:40.420Z,2.80
2022-11-27T04:53:09.925Z,2.80
2022-11-27T04:55:37.888Z,2.70
2022-11-27T04:58:05.762Z,2.70
2022-11-27T05:00:33.814Z,2.60
2022-11-27T05:03:03.111Z,2.60
2022-11-27T05:05:31.310Z,2.50
2022-11-27T05:07:59.364Z,2.50
2022-11-27T05:10:28.842Z,2.40
2022-11-27T05:12:56.810Z,2.30
2022-11-27T05:15:24.890Z,2.30
2022-11-27T05:17:52.809Z,2.30
2022-11-27T05:20:21.020Z,2.30
2022-11-27T05:22:49.708Z,2.30
2022-11-27T05:25:17.753Z,2.20
2022-11-27T05:27:47.051Z,2.20
2022-11-27T05:30:15.197Z,2.20
2022-11-27T05:32:43.114Z,2.20
2022-11-27T05:35:11.619Z,2.10
2022-11-27T05:37:39.593Z,2.20
2022-11-27T05:40:08.823Z,2.20
2022-11-27T05:42:36.760Z,2.20
2022-11-27T05:45:07.248Z,2.10
2022-11-27T05:47:35.180Z,2.20
2022-11-27T05:50:03.143Z,2.10
2022-11-27T05:52:31.104Z,2.10
2022-11-27T05:54:59.069Z,2.10
2022-11-27T05:57:30.213Z,2.10
2022-11-27T05:59:58.526Z,2.20
2022-11-27T06:02:29.649Z,2.10
2022-11-27T06:04:57.791Z,2.20
2022-11-27T06:07:26.563Z,2.10
2022-11-27T06:09:54.499Z,2.10
2022-11-27T06:12:22.482Z,2.20
2022-11-27T06:14:50.431Z,2.20
2022-11-27T06:17:18.350Z,2.20
2022-11-27T06:19:47.618Z,2.20
2022-11-27T06:22:15.512Z,2.20
2022-11-27T06:24:43.550Z,2.30
2022-11-27T06:27:11.579Z,2.30
2022-11-27T06:29:39.481Z,2.30
2022-11-27T06:32:07.544Z,2.30
2022-11-27T06:34:35.515Z,2.30
2022-11-27T06:37:07.991Z,2.30
2022-11-27T06:39:38.733Z,2.40
2022-11-27T06:42:06.773Z,2.40
2022-11-27T06:44:34.726Z,2.50
2022-11-27T06:47:02.700Z,2.60
2022-11-27T06:49:30.616Z,2.60
2022-11-27T06:51:58.543Z,2.60
2022-11-27T06:54:28.157Z,2.60
2022-11-27T06:56:56.132Z,2.70
2022-11-27T06:59:24.094Z,2.70
2022-11-27T07:01:52.011Z,2.70
2022-11-27T07:04:19.998Z,2.80
2022-11-27T07:06:48.056Z,2.80
2022-11-27T07:09:16.546Z,2.80
2022-11-27T07:11:45.915Z,2.80
2022-11-27T07:14:14.057Z,2.80
2022-11-27T07:16:42.323Z,2.80
2022-11-27T07:19:11.834Z,2.90
2022-11-27T07:21:40.405Z,2.90
2022-11-27T07:24:09.507Z,2.90
2022-11-27T07:26:37.524Z,2.90
2022-11-27T07:29:06.929Z,2.90
2022-11-27T07:31:35.199Z,2.90
2022-11-27T07:34:05.822Z,2.90
2022-11-27T07:36:36.829Z,2.90
2022-11-27T07:39:07.553Z,3.00
2022-11-27T07:41:35.529Z,3.00
2022-11-27T07:44:04.049Z,3.00
2022-11-27T07:46:33.448Z,3.10
2022-11-27T07:49:01.541Z,3.10
2022-11-27T07:51:29.781Z,3.20
2022-11-27T07:53:57.915Z,3.20
2022-11-27T07:56:25.856Z,3.20
2022-11-27T07:58:53.752Z,3.20
2022-11-27T08:01:22.172Z,3.20
2022-11-27T08:03:51.573Z,3.20
2022-11-27T08:06:21.583Z,3.30
2022-11-27T08:08:49.883Z,3.30
2022-11-27T08:11:19.577Z,3.20
2022-11-27T08:13:47.761Z,3.20
2022-11-27T08:16:16.120Z,3.20
2022-11-27T08:18:44.112Z,3.20
2022-11-27T08:21:13.504Z,3.30
2022-11-27T08:23:41.883Z,3.30
2022-11-27T08:26:10.948Z,3.30
2022-11-27T08:28:40.175Z,3.40
2022-11-27T08:31:11.342Z,3.40
2022-11-27T08:33:39.545Z,3.40
2022-11-27T08:36:11.499Z,3.50
2022-11-27T08:38:43.478Z,3.50
2022-11-27T08:41:11.764Z,3.60
2022-11-27T08:43:39.646Z,3.60
2022-11-27T08:46:08.466Z,3.70
2022-11-27T08:48:36.917Z,3.80
2022-11-27T08:51:08.211Z,3.90
2022-11-27T08:53:37.461Z,3.90
2022-11-27T08:56:15.404Z,4.00
2022-11-27T08:58:43.462Z,4.10
2022-11-27T09:01:15.030Z,4.20
2022-11-27T09:03:43.054Z,4.40
2022-11-27T09:06:12.894Z,4.80
2022-11-27T09:08:41.760Z,5.10
2022-11-27T09:11:12.291Z,5.50
2022-11-27T09:13:40.682Z,5.40
2022-11-27T09:16:11.183Z,5.30
2022-11-27T09:18:39.546Z,5.40
2022-11-27T09:21:09.702Z,5.50
2022-11-27T09:23:38.450Z,5.70
2022-11-27T09:26:08.131Z,6.10
2022-11-27T09:28:38.424Z,6.30
2022-11-27T09:31:08.145Z,6.10
2022-11-27T09:33:38.414Z,5.70
2022-11-27T09:36:08.584Z,5.40
2022-11-27T09:38:36.835Z,5.40
2022-11-27T09:41:14.810Z,5.40
2022-11-27T09:43:58.013Z,5.70
2022-11-27T09:46:30.292Z,5.60
2022-11-27T09:49:00.555Z,5.70
2022-11-27T09:51:35.212Z,5.70
2022-11-27T09:54:09.523Z,5.70
2022-11-27T09:56:37.902Z,5.80
2022-11-27T09:59:17.215Z,5.60
2022-11-27T10:01:50.655Z,5.50
2022-11-27T10:04:21.372Z,5.40
2022-11-27T10:07:10.582Z,5.30
2022-11-27T10:09:48.456Z,5.30
2022-11-27T10:12:23.250Z,5.20
2022-11-27T10:15:03.815Z,5.20
2022-11-27T10:17:38.980Z,5.20
2022-11-27T10:20:23.403Z,5.30
2022-11-27T10:22:57.494Z,5.30
2022-11-27T10:25:30.984Z,5.30
2022-11-27T10:28:10.755Z,5.40
2022-11-27T10:30:47.239Z,5.60
2022-11-27T10:33:19.918Z,5.70
2022-11-27T10:35:50.426Z,5.80
2022-11-27T10:38:22.062Z,5.90
2022-11-27T10:40:59.504Z,6.10
2022-11-27T10:43:27.696Z,6.20
2022-11-27T10:46:03.052Z,6.30
2022-11-27T10:48:31.125Z,6.50
2022-11-27T10:51:00.234Z,6.70
2022-11-27T10:53:31.832Z,6.90
2022-11-27T10:56:21.026Z,7.00
2022-11-27T10:58:54.045Z,7.00
2022-11-27T11:01:24.423Z,6.90
2022-11-27T11:04:24.226Z,6.70
2022-11-27T11:06:52.805Z,6.60
2022-11-27T11:09:24.658Z,6.50
2022-11-27T11:11:53.054Z,6.40
2022-11-27T11:14:23.667Z,6.50
2022-11-27T11:16:55.150Z,6.50
2022-11-27T11:19:25.881Z,6.50
2022-11-27T11:21:54.043Z,6.50
2022-11-27T11:24:27.313Z,6.50
2022-11-27T11:26:59.256Z,6.50
2022-11-27T11:29:32.677Z,6.60
2022-11-27T11:32:09.308Z,6.60
2022-11-27T11:34:42.298Z,6.60
2022-11-27T11:37:22.232Z,6.60
2022-11-27T11:39:57.189Z,6.60
2022-11-27T11:42:27.661Z,6.60
2022-11-27T11:44:56.872Z,6.50
2022-11-27T11:47:26.751Z,6.60
2022-11-27T11:49:56.043Z,6.60
2022-11-27T11:52:39.149Z,6.70
2022-11-27T11:55:15.700Z,6.80
2022-11-27T11:58:20.235Z,6.80
2022-11-27T12:01:25.499Z,6.80
2022-11-27T12:04:08.487Z,6.90
2022-11-27T12:06:46.088Z,7.00
2022-11-27T12:09:26.307Z,7.00
2022-11-27T12:12:00.551Z,7.00
2022-11-27T12:14:43.379Z,7.00
2022-11-27T12:17:26.179Z,7.00
2022-11-27T12:20:15.060Z,7.10
2022-11-27T12:23:10.433Z,7.10
2022-11-27T12:25:43.080Z,7.20
2022-11-27T12:28:29.495Z,7.30
2022-11-27T12:31:05.648Z,7.40
2022-11-27T12:33:56.306Z,7.40
2022-11-27T12:36:51.609Z,7.30
2022-11-27T12:39:26.583Z,7.40
2022-11-27T12:42:21.751Z,7.40
2022-11-27T12:45:01.496Z,7.40
2022-11-27T12:47:40.059Z,7.30
2022-11-27T12:50:15.389Z,7.40
2022-11-27T12:52:49.025Z,7.30
2022-11-27T12:55:21.683Z,7.40
2022-11-27T12:57:52.296Z,7.50
2022-11-27T13:00:23.005Z,7.50
2022-11-27T13:03:01.983Z,7.50
2022-11-27T13:05:34.300Z,7.50
2022-11-27T13:08:10.924Z,7.40
2022-11-27T13:11:12.801Z,7.30
2022-11-27T13:13:44.366Z,7.30
2022-11-27T13:16:18.733Z,7.40
2022-11-27T13:18:52.897Z,7.30
2022-11-27T13:21:24.751Z,7.30
2022-11-27T13:23:54.543Z,7.30
2022-11-27T13:26:28.343Z,7.20
2022-11-27T13:28:59.811Z,7.20
2022-11-27T13:31:30.810Z,7.20
2022-11-27T13:34:02.313Z,7.10
2022-11-27T13:36:36.299Z,7.10
2022-11-27T13:39:06.316Z,7.00
2022-11-27T13:41:39.913Z,6.90
2022-11-27T13:44:24.114Z,6.90
2022-11-27T13:46:54.924Z,6.90
2022-11-27T13:49:27.178Z,6.60
2022-11-27T13:52:06.660Z,6.50
2022-11-27T13:54:36.079Z,6.40
2022-11-27T13:57:15.850Z,6.30
2022-11-27T13:59:56.879Z,6.20
2022-11-27T14:02:25.516Z,6.10
2022-11-27T14:04:56.384Z,6.10
2022-11-27T14:07:36.115Z,6.10
2022-11-27T14:10:12.969Z,6.20
2022-11-27T14:12:42.810Z,6.10
2022-11-27T14:15:23.376Z,6.00
2022-11-27T14:17:53.119Z,6.00
2022-11-27T14:20:27.659Z,6.00
2022-11-27T14:23:11.888Z,6.00
2022-11-27T14:25:42.638Z,6.00
2022-11-27T14:28:16.271Z,5.90
2022-11-27T14:30:48.073Z,6.00
2022-11-27T14:33:21.121Z,6.00
2022-11-27T14:35:50.876Z,5.90
2022-11-27T14:38:18.871Z,5.90
2022-11-27T14:40:49.193Z,5.90
2022-11-27T14:43:18.794Z,5.90
2022-11-27T14:45:50.623Z,5.90
2022-11-27T14:48:21.939Z,5.80
2022-11-27T14:50:51.573Z,5.80
2022-11-27T14:53:21.679Z,5.70
2022-11-27T14:55:53.421Z,5.70
2022-11-27T14:58:25.842Z,5.80
2022-11-27T15:00:57.470Z,5.80
2022-11-27T15:03:27.262Z,5.80
2022-11-27T15:05:59.075Z,5.80
2022-11-27T15:08:28.091Z,5.80
2022-11-27T15:10:59.481Z,5.70
2022-11-27T15:13:30.059Z,5.80
2022-11-27T15:16:02.961Z,5.80
2022-11-27T15:18:33.495Z,5.80
2022-11-27T15:21:03.631Z,5.80
2022-11-27T15:23:34.420Z,5.80
2022-11-27T15:26:15.085Z,5.70
2022-11-27T15:28:52.814Z,5.70
2022-11-27T15:31:27.216Z,5.80
2022-11-27T15:34:03.801Z,5.70
2022-11-27T15:36:40.689Z,5.70
2022-11-27T15:39:20.544Z,5.60
2022-11-27T15:41:54.803Z,5.70
2022-11-27T15:44:23.818Z,5.70
2022-11-27T15:46:52.834Z,5.80
2022-11-27T15:49:22.200Z,5.70
2022-11-27T15:51:50.510Z,5.70
2022-11-27T15:54:18.848Z,5.70
2022-11-27T15:56:47.902Z,5.70
2022-11-27T15:59:20.439Z,5.70
2022-11-27T16:01:49.287Z,5.70
2022-11-27T16:04:17.597Z,5.70
2022-11-27T16:06:45.591Z,5.70
2022-11-27T16:09:13.948Z,5.70
2022-11-27T16:11:42.052Z,5.60
2022-11-27T16:14:10.017Z,5.60
2022-11-27T16:16:39.557Z,5.60
2022-11-27T16:19:07.619Z,5.60
2022-11-27T16:21:36.449Z,5.60
2022-11-27T16:24:06.558Z,5.60
2022-11-27T16:26:35.900Z,5.60
2022-11-27T16:29:03.957Z,5.60
2022-11-27T16:31:31.912Z,5.60
2022-11-27T16:34:02.115Z,5.60
2022-11-27T16:36:30.266Z,5.70
2022-11-27T16:38:58.336Z,5.70
2022-11-27T16:41:26.932Z,5.70
2022-11-27T16:43:56.683Z,5.70
2022-11-27T16:46:27.104Z,5.60
2022-11-27T16:48:56.197Z,5.60
2022-11-27T16:51:28.364Z,5.50
2022-11-27T16:53:58.053Z,5.60
2022-11-27T16:56:27.954Z,5.60
2022-11-27T16:59:01.160Z,5.60
2022-11-27T17:01:34.128Z,5.70
2022-11-27T17:04:03.584Z,5.70
2022-11-27T17:06:34.320Z,5.80
2022-11-27T17:09:05.112Z,5.80
2022-11-27T17:11:34.490Z,5.80
2022-11-27T17:14:05.006Z,5.80
2022-11-27T17:16:33.533Z,5.70
2022-11-27T17:19:01.829Z,5.60
2022-11-27T17:21:33.194Z,5.50
2022-11-27T17:24:02.315Z,5.50
2022-11-27T17:26:31.923Z,5.50
2022-11-27T17:29:00.334Z,5.60
2022-11-27T17:31:32.633Z,5.70
2022-11-27T17:34:01.272Z,5.70
2022-11-27T17:36:35.156Z,5.80
2022-11-27T17:39:07.155Z,5.80
2022-11-27T17:41:35.428Z,5.80
2022-11-27T17:44:05.339Z,5.70
2022-11-27T17:46:34.316Z,5.60
2022-11-27T17:49:04.365Z,5.50
2022-11-27T17:51:34.407Z,5.50
2022-11-27T17:54:03.637Z,5.40
2022-11-27T17:56:34.069Z,5.40
2022-11-27T17:59:02.020Z,5.40
2022-11-27T18:01:31.037Z,5.40
2022-11-27T18:04:01.453Z,5.40
2022-11-27T18:06:29.366Z,5.60
2022-11-27T18:08:58.156Z,5.50
2022-11-27T18:11:28.811Z,5.50
2022-11-27T18:13:58.217Z,5.50
2022-11-27T18:16:29.257Z,5.60
2022-11-27T18:18:58.136Z,5.60
2022-11-27T18:21:28.538Z,5.80
2022-11-27T18:24:22.407Z,5.80
2022-11-27T18:29:36.605Z,5.70
2022-11-27T18:32:06.764Z,5.70
2022-11-27T18:34:34.984Z,5.80
2022-11-27T18:37:03.441Z,5.80
2022-11-27T18:39:31.524Z,5.80
2022-11-27T18:41:59.517Z,5.80
2022-11-27T18:44:27.803Z,5.70
2022-11-27T18:46:57.712Z,5.80
2022-11-27T18:49:25.810Z,5.80
2022-11-27T18:51:56.292Z,5.80
2022-11-27T18:54:25.112Z,5.70
2022-11-27T18:56:53.093Z,5.60
2022-11-27T18:59:21.149Z,5.60
2022-11-27T19:01:49.320Z,5.70
2022-11-27T19:04:18.788Z,5.70
2022-11-27T19:06:46.667Z,5.80
2022-11-27T19:09:15.441Z,5.80
2022-11-27T19:11:43.954Z,5.70
2022-11-27T19:14:12.391Z,5.70
2022-11-27T19:16:45.928Z,5.80
2022-11-27T19:19:50.291Z,5.80
2022-11-27T19:22:04.717Z,5.80
2022-11-27T19:24:32.655Z,5.80
2022-11-27T19:27:02.786Z,5.80
2022-11-27T19:29:30.801Z,5.90
2022-11-27T19:32:01.032Z,5.90
2022-11-27T19:34:29.355Z,5.90
2022-11-27T19:36:58.205Z,5.80
2022-11-27T19:39:28.705Z,5.90
2022-11-27T19:41:57.772Z,5.90
2022-11-27T19:44:25.844Z,5.90
2022-11-27T19:46:53.833Z,5.80
2022-11-27T19:49:21.773Z,5.70
2022-11-27T19:51:51.361Z,5.70
2022-11-27T19:54:20.519Z,5.70
2022-11-27T19:56:49.939Z,5.80
2022-11-27T19:59:21.498Z,5.80
2022-11-27T20:01:53.412Z,5.80
2022-11-27T20:04:22.882Z,5.70
2022-11-27T20:06:52.857Z,5.70
2022-11-27T20:09:20.971Z,5.70
2022-11-27T20:11:51.361Z,5.70
2022-11-27T20:14:19.589Z,5.90
2022-11-27T20:16:47.681Z,6.00
2022-11-27T20:19:16.139Z,6.10
2022-11-27T20:21:44.513Z,6.10
2022-11-27T20:24:12.793Z,6.00
2022-11-27T20:26:42.771Z,6.00
2022-11-27T20:29:13.220Z,5.90
2022-11-27T20:31:44.647Z,5.90
2022-11-27T20:34:19.323Z,5.80
2022-11-27T20:36:47.598Z,5.90
2022-11-27T20:39:20.812Z,6.00
2022-11-27T20:41:50.923Z,6.10
2022-11-27T20:44:22.208Z,6.30
2022-11-27T20:46:50.622Z,6.30
2022-11-27T20:49:19.523Z,6.30
2022-11-27T20:51:49.032Z,6.50
2022-11-27T20:54:17.454Z,6.50
2022-11-27T20:56:46.539Z,6.50
2022-11-27T20:59:14.811Z,6.60
2022-11-27T21:01:44.570Z,6.70
2022-11-27T21:04:20.758Z,6.70
2022-11-27T21:06:49.166Z,6.70
2022-11-27T21:09:17.351Z,6.80
2022-11-27T21:11:45.541Z,6.80
2022-11-27T21:14:15.781Z,6.80
2022-11-27T21:16:48.449Z,6.90
2022-11-27T21:19:18.953Z,6.90
2022-11-27T21:21:47.250Z,6.90
2022-11-27T21:24:15.636Z,6.80
2022-11-27T21:26:44.413Z,6.90
2022-11-27T21:29:13.749Z,6.90
2022-11-27T21:31:46.472Z,6.90
2022-11-27T21:34:17.277Z,6.90
2022-11-27T21:36:45.214Z,6.80
2022-11-27T21:39:19.985Z,6.90
2022-11-27T21:41:49.134Z,6.90
2022-11-27T21:44:18.108Z,6.90
2022-11-27T21:46:46.721Z,6.90
2022-11-27T21:49:17.735Z,6.90
2022-11-27T21:51:46.105Z,6.90
2022-11-27T21:54:15.846Z,6.90
2022-11-27T21:56:43.742Z,6.80
2022-11-27T21:59:15.223Z,6.80
2022-11-27T22:01:45.829Z,6.80
2022-11-27T22:04:14.236Z,6.80
2022-11-27T22:06:45.110Z,6.90
2022-11-27T22:09:15.623Z,6.70
2022-11-27T22:11:45.022Z,6.60
2022-11-27T22:14:14.208Z,6.60
2022-11-27T22:16:45.685Z,6.60
2022-11-27T22:19:15.200Z,6.60
2022-11-27T22:21:45.007Z,6.60
2022-11-27T22:24:18.387Z,6.60
2022-11-27T22:26:47.307Z,6.70
2022-11-27T22:29:15.268Z,6.80
2022-11-27T22:31:43.249Z,6.70
2022-11-27T22:34:11.222Z,6.70
2022-11-27T22:36:39.202Z,6.70
2022-11-27T22:39:09.794Z,6.80
2022-11-27T22:41:39.880Z,6.70
2022-11-27T22:44:08.637Z,6.70
2022-11-27T22:46:37.476Z,6.60
2022-11-27T22:49:07.064Z,6.60
2022-11-27T22:51:36.933Z,6.60
2022-11-27T22:54:07.598Z,6.60
2022-11-27T22:56:37.191Z,6.60
2022-11-27T22:59:30.977Z,6.60
2022-11-27T23:01:55.274Z,6.50
2022-11-27T23:04:23.396Z,6.50
2022-11-27T23:06:51.350Z,6.50
2022-11-27T23:09:19.374Z,6.50
2022-11-27T23:11:49.159Z,6.50
2022-11-27T23:14:17.067Z,6.50
2022-11-27T23:16:45.251Z,6.50
2022-11-27T23:19:13.425Z,6.50
2022-11-27T23:21:41.542Z,6.50
2022-11-27T23:24:12.711Z,6.50
2022-11-27T23:26:40.671Z,6.50
2022-11-27T23:29:10.367Z,6.60
2022-11-27T23:31:39.126Z,6.50
2022-11-27T23:34:11.566Z,6.40
2022-11-27T23:36:39.549Z,6.40
2022-11-27T23:39:09.480Z,6.40
2022-11-27T23:41:37.450Z,6.40
2022-11-27T23:44:05.549Z,6.40
2022-11-27T23:46:34.768Z,6.40
2022-11-27T23:49:02.649Z,6.30
2022-11-27T23:51:32.442Z,6.40
2022-11-27T23:54:01.315Z,6.40
2022-11-27T23:56:31.648Z,6.30
2022-11-27T23:59:00.076Z,6.30
